createdAt,value
2022-09-07T00:00:44.141Z,155296.19
2022-09-07T00:03:12.527Z,155249.34
2022-09-07T00:05:43.347Z,155206.44
2022-09-07T00:08:12.624Z,155192.13
2022-09-07T00:10:40.434Z,155173.88
2022-09-07T00:13:10.804Z,155172.56
2022-09-07T00:15:40.952Z,155133.56
2022-09-07T00:18:08.928Z,155099.75
2022-09-07T00:20:36.851Z,154951.50
2022-09-07T00:23:04.734Z,154954.13
2022-09-07T00:25:32.644Z,154985.38
2022-09-07T00:28:00.533Z,154955.47
2022-09-07T00:30:29.864Z,154848.88
2022-09-07T00:32:57.775Z,154776.13
2022-09-07T00:35:25.606Z,154747.53
2022-09-07T00:37:54.508Z,154742.38
2022-09-07T00:40:22.282Z,154796.88
2022-09-07T00:42:50.217Z,154794.28
2022-09-07T00:45:19.343Z,154811.19
2022-09-07T00:47:55.804Z,154805.97
2022-09-07T00:50:28.517Z,154860.56
2022-09-07T00:53:06.227Z,154717.66
2022-09-07T00:55:36.209Z,154669.59
2022-09-07T00:58:05.702Z,154652.69
2022-09-07T01:00:34.097Z,154564.38
2022-09-07T01:03:05.894Z,154587.72
2022-09-07T01:05:40.073Z,154628.00
2022-09-07T01:08:09.419Z,154647.50
2022-09-07T01:10:37.806Z,154635.81
2022-09-07T01:13:05.982Z,154647.50
2022-09-07T01:15:44.298Z,154650.09
2022-09-07T01:18:25.674Z,154657.91
2022-09-07T01:21:25.261Z,154586.47
2022-09-07T01:24:14.330Z,154626.72
2022-09-07T01:27:12.282Z,154638.41
2022-09-07T01:29:51.746Z,154629.31
2022-09-07T01:32:28.987Z,154663.06
2022-09-07T01:34:56.820Z,154666.97
2022-09-07T01:37:33.258Z,154677.34
2022-09-07T01:40:06.978Z,154716.38
2022-09-07T01:42:42.567Z,154685.16
2022-09-07T01:45:14.810Z,154682.56
2022-09-07T01:47:46.422Z,154691.63
2022-09-07T01:50:19.926Z,154683.84
2022-09-07T01:52:54.447Z,154650.09
2022-09-07T01:55:28.492Z,154659.19
2022-09-07T01:58:08.560Z,154657.91
2022-09-07T02:00:41.584Z,154624.13
2022-09-07T02:03:15.837Z,154620.25
2022-09-07T02:05:47.909Z,154625.41
2022-09-07T02:08:19.804Z,154585.19
2022-09-07T02:10:51.557Z,154589.06
2022-09-07T02:13:24.071Z,154581.25
2022-09-07T02:15:59.950Z,154607.22
2022-09-07T02:18:31.763Z,154608.56
2022-09-07T02:21:02.814Z,154609.84
2022-09-07T02:23:38.675Z,154594.25
2022-09-07T02:26:11.443Z,154611.09
2022-09-07T02:28:40.524Z,154599.41
2022-09-07T02:31:09.813Z,154605.94
2022-09-07T02:33:38.063Z,154489.06
2022-09-07T02:36:07.287Z,154528.03
2022-09-07T02:38:36.329Z,154557.88
2022-09-07T02:41:06.048Z,154576.06
2022-09-07T02:43:34.214Z,154516.34
2022-09-07T02:46:17.625Z,154560.50
2022-09-07T02:48:52.142Z,154542.31
2022-09-07T02:51:28.258Z,154520.22
2022-09-07T02:54:11.159Z,154518.97
2022-09-07T02:56:54.939Z,154482.59
2022-09-07T02:59:41.872Z,154472.22
2022-09-07T03:02:20.017Z,154437.13
2022-09-07T03:04:54.870Z,154461.81
2022-09-07T03:07:27.192Z,154425.47
2022-09-07T03:09:57.590Z,154426.72
2022-09-07T03:12:25.834Z,154392.97
2022-09-07T03:14:53.766Z,154359.25
2022-09-07T03:17:22.952Z,154370.94
2022-09-07T03:19:50.843Z,154319.03
2022-09-07T03:22:19.506Z,154328.09
2022-09-07T03:24:47.295Z,154333.31
2022-09-07T03:27:15.103Z,154326.84
2022-09-07T03:29:42.843Z,154313.81
2022-09-07T03:32:10.635Z,154268.44
2022-09-07T03:34:39.871Z,154252.84
2022-09-07T03:37:07.721Z,154271.03
2022-09-07T03:39:36.438Z,154271.03
2022-09-07T03:42:04.375Z,154282.72
2022-09-07T03:44:32.306Z,154274.91
2022-09-07T03:47:00.114Z,154264.53
2022-09-07T03:49:27.971Z,154276.19
2022-09-07T03:51:57.195Z,154256.78
2022-09-07T03:54:25.206Z,154224.28
2022-09-07T03:56:53.045Z,154219.16
2022-09-07T03:59:20.927Z,154211.34
2022-09-07T04:01:48.790Z,154229.50
2022-09-07T04:04:16.763Z,154226.91
2022-09-07T04:06:44.613Z,154217.81
2022-09-07T04:09:15.447Z,154194.47
2022-09-07T04:11:43.585Z,154217.81
2022-09-07T04:14:12.264Z,154176.28
2022-09-07T04:16:40.393Z,154159.41
2022-09-07T04:19:08.325Z,154162.00
2022-09-07T04:21:36.163Z,154149.06
2022-09-07T04:24:04.539Z,154149.06
2022-09-07T04:26:37.052Z,154160.72
2022-09-07T04:29:06.435Z,154154.22
2022-09-07T04:31:34.994Z,154121.78
2022-09-07T04:34:03.251Z,154088.09
2022-09-07T04:36:31.311Z,154127.00
2022-09-07T04:39:00.850Z,154111.44
2022-09-07T04:41:30.379Z,154138.66
2022-09-07T04:44:00.812Z,154099.78
2022-09-07T04:46:30.889Z,154082.91
2022-09-07T04:49:00.343Z,154084.19
2022-09-07T04:51:30.460Z,154058.25
2022-09-07T04:53:59.878Z,154053.09
2022-09-07T04:56:27.806Z,154060.84
2022-09-07T04:58:55.660Z,154097.19
2022-09-07T05:01:26.341Z,154058.25
2022-09-07T05:03:54.714Z,154073.84
2022-09-07T05:06:23.780Z,154034.91
2022-09-07T05:08:52.849Z,154028.44
2022-09-07T05:11:27.755Z,154038.84
2022-09-07T05:13:56.931Z,154020.66
2022-09-07T05:16:26.586Z,154010.31
2022-09-07T05:18:56.670Z,154020.66
2022-09-07T05:21:26.380Z,154015.50
2022-09-07T05:23:56.340Z,153997.31
2022-09-07T05:26:26.993Z,153999.91
2022-09-07T05:31:44.636Z,154002.50
2022-09-07T05:36:56.283Z,154003.81
2022-09-07T05:39:24.349Z,153990.84
2022-09-07T05:41:52.136Z,154010.31
2022-09-07T05:47:09.230Z,154020.66
2022-09-07T05:49:37.503Z,154042.72
2022-09-07T05:52:05.299Z,154038.84
2022-09-07T05:54:33.206Z,154045.31
2022-09-07T05:57:02.961Z,154068.66
2022-09-07T05:59:30.788Z,154091.97
2022-09-07T06:01:58.692Z,154121.78
2022-09-07T06:04:28.065Z,154129.59
2022-09-07T06:07:21.692Z,154163.28
2022-09-07T06:12:31.778Z,154241.16
2022-09-07T06:15:01.419Z,154294.41
2022-09-07T06:17:31.033Z,154334.56
2022-09-07T06:20:00.311Z,154369.59
2022-09-07T06:22:30.912Z,154372.22
2022-09-07T06:24:58.970Z,154400.78
2022-09-07T06:27:26.833Z,154400.78
2022-09-07T06:29:54.685Z,154429.34
2022-09-07T06:35:12.605Z,154400.78
2022-09-07T06:37:40.856Z,154405.97
2022-09-07T06:40:10.619Z,154391.69
2022-09-07T06:42:38.771Z,154430.59
2022-09-07T06:45:07.849Z,154467.03
2022-09-07T06:47:35.903Z,154526.72
2022-09-07T06:50:03.925Z,154594.25
2022-09-07T06:55:21.137Z,154615.03
2022-09-07T06:57:49.051Z,154633.19
2022-09-07T07:00:17.587Z,154657.91
2022-09-07T07:02:45.638Z,154726.75
2022-09-07T07:05:13.531Z,154804.69
2022-09-07T07:07:43.012Z,154773.50
2022-09-07T07:10:11.045Z,154737.16
2022-09-07T07:15:06.798Z,154799.50
2022-09-07T07:17:34.682Z,154825.47
2022-09-07T07:20:02.618Z,154826.81
2022-09-07T07:22:45.974Z,154869.66
2022-09-07T07:25:16.514Z,154935.94
2022-09-07T07:27:45.776Z,154955.47
2022-09-07T07:30:14.101Z,155002.28
2022-09-07T07:32:42.463Z,154990.56
2022-09-07T07:35:11.097Z,155102.34
2022-09-07T07:37:39.240Z,155245.44
2022-09-07T07:40:19.000Z,155232.44
2022-09-07T07:42:50.637Z,155143.94
2022-09-07T07:48:06.732Z,155116.66
2022-09-07T07:50:34.868Z,155209.03
2022-09-07T07:55:51.166Z,155106.22
2022-09-07T07:58:20.821Z,155264.94
2022-09-07T08:00:56.666Z,155327.34
2022-09-07T08:03:26.242Z,155439.31
2022-09-07T08:05:54.410Z,155473.13
2022-09-07T08:08:23.124Z,155423.69
2022-09-07T08:10:51.008Z,155488.78
2022-09-07T08:13:21.526Z,155387.22
2022-09-07T08:15:49.629Z,155337.78
2022-09-07T08:18:18.273Z,155529.13
2022-09-07T08:20:46.071Z,155617.59
2022-09-07T08:23:15.230Z,155587.69
2022-09-07T08:25:50.667Z,155629.38
2022-09-07T08:28:18.418Z,155564.25
2022-09-07T08:30:47.631Z,155578.53
2022-09-07T08:33:15.532Z,155577.25
2022-09-07T08:35:43.293Z,155577.25
2022-09-07T08:38:11.435Z,155608.50
2022-09-07T08:40:39.728Z,155583.75
2022-09-07T08:43:17.471Z,155553.81
2022-09-07T08:45:51.079Z,155564.25
2022-09-07T08:48:23.949Z,155581.13
2022-09-07T08:50:57.302Z,155620.22
2022-09-07T08:53:26.177Z,155609.78
2022-09-07T08:55:58.497Z,155678.84
2022-09-07T08:58:48.813Z,155667.13
2022-09-07T09:01:37.082Z,155772.56
2022-09-07T09:04:16.740Z,155785.56
2022-09-07T09:06:57.542Z,155874.22
2022-09-07T09:09:33.165Z,155854.66
2022-09-07T09:12:12.447Z,155828.56
2022-09-07T09:14:53.011Z,155776.47
2022-09-07T09:17:30.071Z,155715.28
2022-09-07T09:20:08.154Z,155749.13
2022-09-07T09:22:36.327Z,155753.03
2022-09-07T09:25:16.187Z,155758.25
2022-09-07T09:27:44.227Z,155720.50
2022-09-07T09:30:15.395Z,155793.41
2022-09-07T09:32:46.058Z,155809.00
2022-09-07T09:35:17.872Z,155857.28
2022-09-07T09:37:46.375Z,155889.81
2022-09-07T09:40:26.593Z,155915.88
2022-09-07T09:43:03.171Z,156060.56
2022-09-07T09:46:12.112Z,156051.41
2022-09-07T09:48:32.434Z,156055.34
2022-09-07T09:53:56.898Z,156025.34
2022-09-07T09:56:38.064Z,155960.16
2022-09-07T10:05:28.545Z,156207.81
2022-09-07T10:07:57.530Z,156224.81
2022-09-07T10:10:27.398Z,156038.38
2022-09-07T10:12:56.372Z,156104.84
2022-09-07T10:15:39.953Z,156103.53
2022-09-07T10:18:09.696Z,156119.19
2022-09-07T10:20:39.652Z,156154.38
2022-09-07T10:23:20.646Z,156202.56
2022-09-07T10:25:48.707Z,156173.91
2022-09-07T10:28:21.210Z,156145.25
2022-09-07T10:31:02.597Z,156231.31
2022-09-07T10:33:43.612Z,156219.56
2022-09-07T10:36:17.576Z,156189.56
2022-09-07T10:38:52.075Z,156192.19
2022-09-07T10:41:22.884Z,156138.72
2022-09-07T10:43:51.202Z,156181.72
2022-09-07T10:46:58.913Z,156347.34
2022-09-07T10:49:33.264Z,156382.56
2022-09-07T10:52:12.793Z,156372.09
2022-09-07T10:54:47.657Z,156402.13
2022-09-07T10:57:32.812Z,156158.28
2022-09-07T11:00:08.818Z,156181.72
2022-09-07T11:05:45.558Z,156190.84
2022-09-07T11:09:14.872Z,156162.16
2022-09-07T11:14:20.283Z,156026.63
2022-09-07T11:16:53.696Z,156230.03
2022-09-07T11:19:40.759Z,156280.84
2022-09-07T11:22:19.509Z,156288.69
2022-09-07T11:27:48.305Z,156256.09
2022-09-07T11:30:22.718Z,156417.81
2022-09-07T11:32:59.181Z,156453.00
2022-09-07T11:35:35.343Z,156549.53
2022-09-07T11:38:15.621Z,156490.84
2022-09-07T11:40:56.290Z,156562.56
2022-09-07T11:43:28.667Z,156571.72
2022-09-07T11:45:59.476Z,156666.97
2022-09-07T11:48:33.894Z,156682.63
2022-09-07T11:51:06.472Z,156742.66
2022-09-07T11:53:38.016Z,156677.44
2022-09-07T11:56:13.996Z,156659.13
2022-09-07T11:59:03.719Z,156794.94
2022-09-07T12:01:43.980Z,156601.78
2022-09-07T12:04:31.564Z,156479.09
2022-09-07T12:07:37.751Z,156333.00
2022-09-07T12:10:30.006Z,156614.78
2022-09-07T12:13:28.393Z,156672.22
2022-09-07T12:16:03.888Z,156712.66
2022-09-07T12:19:01.183Z,156776.66
2022-09-07T12:21:38.896Z,156828.84
2022-09-07T12:24:07.001Z,156840.59
2022-09-07T12:26:51.498Z,156720.47
2022-09-07T12:29:24.115Z,156796.22
2022-09-07T12:31:58.793Z,156760.97
2022-09-07T12:34:50.733Z,156546.91
2022-09-07T12:37:45.515Z,156549.53
2022-09-07T12:40:46.999Z,156560.00
2022-09-07T12:43:36.263Z,156562.56
2022-09-07T12:46:05.461Z,156556.03
2022-09-07T12:48:44.429Z,156334.28
2022-09-07T12:54:19.873Z,156760.97
2022-09-07T12:59:59.725Z,156620.03
2022-09-07T13:03:04.279Z,156596.53
2022-09-07T13:05:46.407Z,156642.22
2022-09-07T13:08:41.252Z,156623.91
2022-09-07T13:11:31.665Z,156751.81
2022-09-07T13:14:04.447Z,156802.78
2022-09-07T13:19:57.650Z,156554.75
2022-09-07T13:22:57.584Z,156612.19
2022-09-07T13:25:52.409Z,156689.19
2022-09-07T13:28:54.831Z,156524.72
2022-09-07T13:31:45.165Z,156591.31
2022-09-07T13:34:42.425Z,156523.44
2022-09-07T13:37:17.219Z,156600.44
2022-09-07T13:39:48.541Z,156595.25
2022-09-07T13:42:17.609Z,156460.84
2022-09-07T13:44:54.344Z,156541.69
2022-09-07T13:47:34.499Z,156648.72
2022-09-07T13:50:11.084Z,156646.13
2022-09-07T13:52:52.672Z,156630.47
2022-09-07T13:55:29.107Z,156595.25
2022-09-07T13:58:12.058Z,156683.97
2022-09-07T14:00:52.248Z,156781.84
2022-09-07T14:03:20.567Z,156523.44
2022-09-07T14:05:48.327Z,156661.75
2022-09-07T14:08:27.579Z,156520.81
2022-09-07T14:10:56.808Z,156603.06
2022-09-07T14:13:24.655Z,156620.03
2022-09-07T14:15:52.484Z,156631.75
2022-09-07T14:18:28.560Z,156342.13
2022-09-07T14:20:56.403Z,156317.38
2022-09-07T14:23:28.159Z,156353.84
2022-09-07T14:26:16.878Z,156201.28
2022-09-07T14:28:47.813Z,156360.38
2022-09-07T14:31:17.845Z,156460.84
2022-09-07T14:33:50.548Z,156520.81
2022-09-07T14:36:39.228Z,156664.38
2022-09-07T14:39:09.183Z,156665.69
2022-09-07T14:41:41.374Z,156676.09
2022-09-07T14:44:28.257Z,156659.13
2022-09-07T14:46:57.158Z,156625.25
2022-09-07T14:49:26.003Z,156480.38
2022-09-07T14:51:55.639Z,156526.06
2022-09-07T14:54:27.371Z,156563.88
2022-09-07T14:57:30.367Z,156543.03
2022-09-07T14:59:58.875Z,156540.41
2022-09-07T15:02:38.319Z,156469.97
2022-09-07T15:05:27.243Z,156483.00
2022-09-07T15:07:57.796Z,156432.16
2022-09-07T15:10:41.309Z,156484.34
2022-09-07T15:13:29.833Z,156520.81
2022-09-07T15:16:00.050Z,156396.91
2022-09-07T15:18:52.484Z,156374.72
2022-09-07T15:21:20.222Z,156445.19
2022-09-07T15:23:50.823Z,156403.41
2022-09-07T15:29:11.035Z,156415.19
2022-09-07T15:31:42.641Z,156385.16
2022-09-07T15:34:13.957Z,156396.91
2022-09-07T15:36:43.619Z,156376.03
2022-09-07T15:39:17.041Z,156385.16
2022-09-07T15:41:44.967Z,156398.19
2022-09-07T15:44:15.114Z,156289.97
2022-09-07T15:47:42.025Z,156339.50
2022-09-07T15:49:31.069Z,156296.47
2022-09-07T15:52:06.499Z,156360.38
2022-09-07T15:54:36.904Z,156293.88
2022-09-07T15:59:56.580Z,156394.28
2022-09-07T16:05:12.266Z,156249.53
2022-09-07T16:10:31.076Z,156303.03
2022-09-07T16:13:02.040Z,156322.56
2022-09-07T16:15:32.400Z,156352.56
2022-09-07T16:18:00.267Z,156353.84
2022-09-07T16:20:31.992Z,156330.41
2022-09-07T16:23:16.827Z,156291.31
2022-09-07T16:25:57.083Z,156331.69
2022-09-07T16:28:25.042Z,156309.53
2022-09-07T16:30:54.351Z,156300.41
2022-09-07T16:33:25.291Z,156361.69
2022-09-07T16:36:00.493Z,156338.22
2022-09-07T16:38:44.908Z,156327.78
2022-09-07T16:41:14.641Z,156319.94
2022-09-07T16:43:42.719Z,156206.53
2022-09-07T16:46:14.678Z,156209.09
2022-09-07T16:48:42.901Z,156213.03
2022-09-07T16:51:13.762Z,156206.53
2022-09-07T16:53:42.898Z,156223.47
2022-09-07T16:56:12.397Z,156099.63
2022-09-07T16:58:42.125Z,156124.38
2022-09-07T17:01:12.993Z,156129.59
2022-09-07T17:03:41.815Z,156120.47
2022-09-07T17:06:11.982Z,156145.25
2022-09-07T17:08:40.567Z,156140.03
2022-09-07T17:11:10.006Z,156126.97
2022-09-07T17:13:39.853Z,156138.72
2022-09-07T17:16:09.722Z,156132.19
2022-09-07T17:21:30.076Z,156103.53
2022-09-07T17:23:57.840Z,156099.63
2022-09-07T17:26:27.319Z,156091.78
2022-09-07T17:29:00.426Z,156082.69
2022-09-07T17:34:20.945Z,156048.84
2022-09-07T17:36:49.290Z,156030.56
2022-09-07T17:39:18.794Z,156003.16
2022-09-07T17:41:47.796Z,155981.00
2022-09-07T17:44:16.179Z,155918.50
2022-09-07T17:46:44.005Z,155897.66
2022-09-07T17:49:14.073Z,155866.38
2022-09-07T17:51:43.963Z,155831.22
2022-09-07T17:54:14.694Z,155797.28
2022-09-07T17:56:43.058Z,155764.75
2022-09-07T18:01:59.599Z,155665.78
2022-09-07T18:04:28.653Z,155588.97
2022-09-07T18:06:58.013Z,155548.59
2022-09-07T18:09:25.843Z,155480.94
2022-09-07T18:11:53.576Z,155454.91
2022-09-07T18:14:21.202Z,155414.56
2022-09-07T18:16:51.057Z,155400.22
2022-09-07T18:19:19.866Z,155344.28
2022-09-07T18:21:48.807Z,155290.97
2022-09-07T18:24:20.414Z,155249.34
2022-09-07T18:26:51.339Z,155210.31
2022-09-07T18:29:36.836Z,155171.28
2022-09-07T18:32:09.415Z,155137.44
2022-09-07T18:34:39.519Z,155119.25
2022-09-07T18:37:08.915Z,155081.56
2022-09-07T18:39:38.122Z,155067.25
2022-09-07T18:42:07.672Z,155038.63
2022-09-07T18:47:28.898Z,154978.88
2022-09-07T18:49:57.798Z,154958.09
2022-09-07T18:55:16.013Z,154911.25
2022-09-07T18:57:43.948Z,154872.25
2022-09-07T19:00:13.809Z,154869.66
2022-09-07T19:02:41.915Z,154842.38
2022-09-07T19:07:59.558Z,154783.91
2022-09-07T19:10:28.945Z,154768.31
2022-09-07T19:12:56.880Z,154737.16
2022-09-07T19:15:24.626Z,154715.06
2022-09-07T19:17:52.419Z,154702.06
2022-09-07T19:20:20.277Z,154676.06
2022-09-07T19:22:48.061Z,154679.94
2022-09-07T19:25:16.177Z,154668.25
2022-09-07T19:27:45.382Z,154641.00
2022-09-07T19:30:15.233Z,154621.50
2022-09-07T19:32:43.023Z,154591.66
2022-09-07T19:35:11.071Z,154599.41
2022-09-07T19:37:38.866Z,154577.38
2022-09-07T19:40:08.275Z,154560.50
2022-09-07T19:42:36.148Z,154548.81
2022-09-07T19:45:06.029Z,154566.97
2022-09-07T19:47:35.053Z,154560.50
2022-09-07T19:50:02.926Z,154578.66
2022-09-07T19:52:30.923Z,154546.19
2022-09-07T19:55:02.027Z,154568.28
2022-09-07T19:57:29.895Z,154515.03
2022-09-07T19:59:58.724Z,154504.69
2022-09-07T20:02:27.899Z,154502.06
2022-09-07T20:04:55.638Z,154489.06
2022-09-07T20:07:23.561Z,154468.31
2022-09-07T20:09:52.395Z,154477.38
2022-09-07T20:12:20.188Z,154461.81
2022-09-07T20:14:47.984Z,154439.75
2022-09-07T20:17:15.723Z,154434.53
2022-09-07T20:19:44.892Z,154412.44
2022-09-07T20:22:12.656Z,154378.75
2022-09-07T20:24:40.408Z,154391.69
2022-09-07T20:27:08.188Z,154394.28
2022-09-07T20:29:36.115Z,154355.38
2022-09-07T20:32:04.215Z,154365.75
2022-09-07T20:34:32.174Z,154339.78
2022-09-07T20:37:01.323Z,154330.69
2022-09-07T20:39:29.106Z,154352.78
2022-09-07T20:41:56.908Z,154360.53
2022-09-07T20:44:24.663Z,154352.78
2022-09-07T20:46:52.471Z,154331.97
2022-09-07T20:49:20.233Z,154316.44
2022-09-07T20:51:47.998Z,154276.19
2022-09-07T20:54:17.229Z,154308.63
2022-09-07T20:56:45.250Z,154309.94
2022-09-07T20:59:13.251Z,154315.16
2022-09-07T21:01:41.016Z,154290.47
2022-09-07T21:04:08.811Z,154251.56
2022-09-07T21:06:36.578Z,154272.31
2022-09-07T21:09:04.549Z,154252.84
2022-09-07T21:11:36.314Z,154259.31
2022-09-07T21:14:06.936Z,154217.81
2022-09-07T21:16:35.340Z,154216.56
2022-09-07T21:19:05.639Z,154225.63
2022-09-07T21:21:38.626Z,154208.75
2022-09-07T21:24:07.587Z,154228.22
2022-09-07T21:26:36.730Z,154191.88
2022-09-07T21:29:06.020Z,154213.94
2022-09-07T21:31:34.530Z,154211.34
2022-09-07T21:34:03.184Z,154212.63
2022-09-07T21:36:31.798Z,154219.16
2022-09-07T21:38:59.582Z,154230.81
2022-09-07T21:41:27.366Z,154241.16
2022-09-07T21:43:57.858Z,154237.31
2022-09-07T21:46:26.660Z,154243.78
2022-09-07T21:48:56.747Z,154269.72
2022-09-07T21:51:25.359Z,154259.31
2022-09-07T21:53:53.885Z,154238.56
2022-09-07T21:56:22.401Z,154263.25
2022-09-07T21:58:53.751Z,154252.84
2022-09-07T22:01:24.039Z,154254.16
2022-09-07T22:03:55.872Z,154233.41
2022-09-07T22:06:24.184Z,154219.16
2022-09-07T22:08:52.229Z,154241.16
2022-09-07T22:11:23.096Z,154204.88
2022-09-07T22:13:54.654Z,154193.19
2022-09-07T22:16:24.592Z,154204.88
2022-09-07T22:18:52.844Z,154195.81
2022-09-07T22:21:23.987Z,154154.22
2022-09-07T22:23:53.411Z,154197.06
2022-09-07T22:26:23.791Z,154194.47
2022-09-07T22:28:51.939Z,154184.13
2022-09-07T22:31:22.192Z,154188.00
2022-09-07T22:33:52.519Z,154217.81
2022-09-07T22:36:22.573Z,154215.22
2022-09-07T22:38:52.102Z,154217.81
2022-09-07T22:41:22.002Z,154217.81
2022-09-07T22:43:50.960Z,154217.81
2022-09-07T22:46:20.835Z,154217.81
2022-09-07T22:48:49.074Z,154224.28
2022-09-07T22:51:18.439Z,154182.81
2022-09-07T22:53:46.377Z,154215.22
2022-09-07T22:56:15.963Z,154191.88
2022-09-07T22:58:47.266Z,154188.00
2022-09-07T23:01:15.674Z,154224.28
2022-09-07T23:03:44.773Z,154230.81
2022-09-07T23:06:22.574Z,154230.81
2022-09-07T23:08:50.620Z,154235.97
2022-09-07T23:11:18.403Z,154251.56
2022-09-07T23:13:46.487Z,154264.53
2022-09-07T23:16:14.409Z,154274.91
2022-09-07T23:18:42.277Z,154308.63
2022-09-07T23:21:11.825Z,154324.22
2022-09-07T23:23:41.090Z,154317.75
2022-09-07T23:26:09.232Z,154319.03
2022-09-07T23:28:37.039Z,154321.63
2022-09-07T23:31:05.079Z,154326.84
2022-09-07T23:33:33.129Z,154302.16
2022-09-07T23:36:02.596Z,154295.69
2022-09-07T23:38:31.308Z,154347.59
2022-09-07T23:41:01.289Z,154355.38
2022-09-07T23:43:31.468Z,154350.19
2022-09-07T23:46:00.315Z,154350.19
2022-09-07T23:48:28.439Z,154326.84
2022-09-07T23:50:56.188Z,154357.94
2022-09-07T23:53:24.567Z,154357.94
2022-09-07T23:55:53.547Z,154351.47
2022-09-07T23:58:23.482Z,154383.91
